createdAt,value
2023-01-17T03:03:11.886Z,6.13
2023-01-17T03:05:51.037Z,5.70
2023-01-17T03:08:19.275Z,6.50
2023-01-17T03:10:46.421Z,5.60
2023-01-17T03:13:13.233Z,4.90
2023-01-17T03:15:41.033Z,5.50
2023-01-17T03:18:14.176Z,4.82
2023-01-17T03:20:41.824Z,5.35
2023-01-17T03:23:08.903Z,4.82
2023-01-17T03:25:35.549Z,5.32
2023-01-17T03:28:02.188Z,4.90
2023-01-17T03:30:28.894Z,6.53
2023-01-17T03:32:55.487Z,4.50
2023-01-17T03:35:22.118Z,5.50
2023-01-17T03:37:48.807Z,5.45
2023-01-17T03:40:15.434Z,4.93
2023-01-17T03:42:42.821Z,4.68
2023-01-17T03:45:09.899Z,5.22
2023-01-17T03:47:36.530Z,4.75
2023-01-17T03:50:03.869Z,4.45
2023-01-17T03:52:30.638Z,4.43
2023-01-17T03:54:57.335Z,3.78
2023-01-17T03:57:23.982Z,4.10
2023-01-17T03:59:50.635Z,5.18
2023-01-17T04:02:17.752Z,4.00
2023-01-17T04:04:44.442Z,4.63
2023-01-17T04:07:11.129Z,5.00
2023-01-17T04:09:37.871Z,5.88
2023-01-17T04:12:04.573Z,5.50
2023-01-17T04:14:31.231Z,7.20
2023-01-17T04:16:58.031Z,8.13
2023-01-17T04:19:24.683Z,8.30
2023-01-17T04:21:51.318Z,8.45
2023-01-17T04:24:18.249Z,9.35
2023-01-17T04:26:45.037Z,8.80
2023-01-17T04:29:11.669Z,8.65
2023-01-17T04:31:38.658Z,7.57
2023-01-17T04:34:05.375Z,8.25
2023-01-17T04:36:32.364Z,8.90
2023-01-17T04:38:59.046Z,7.70
2023-01-17T04:41:25.701Z,8.52
2023-01-17T04:43:52.317Z,8.68
2023-01-17T04:46:19.089Z,9.13
2023-01-17T04:48:45.760Z,9.10
2023-01-17T04:51:12.508Z,9.25
2023-01-17T04:53:39.160Z,9.60
2023-01-17T04:56:06.006Z,9.45
2023-01-17T04:58:33.468Z,8.05
2023-01-17T05:01:05.129Z,7.13
2023-01-17T05:03:32.472Z,6.93
2023-01-17T05:05:59.902Z,5.32
2023-01-17T05:08:26.698Z,4.50
2023-01-17T05:10:54.614Z,4.97
2023-01-17T05:13:21.228Z,3.88
2023-01-17T05:15:48.124Z,3.95
2023-01-17T05:18:16.670Z,4.30
2023-01-17T05:20:44.060Z,4.88
2023-01-17T05:23:11.357Z,4.50
2023-01-17T05:25:38.221Z,5.57
2023-01-17T05:28:05.052Z,5.63
2023-01-17T05:30:32.715Z,4.50
2023-01-17T05:32:59.679Z,5.00
2023-01-17T05:35:29.013Z,4.10
2023-01-17T05:37:57.719Z,3.97
2023-01-17T05:40:29.572Z,3.65
2023-01-17T05:42:57.839Z,3.72
2023-01-17T05:45:27.068Z,4.28
2023-01-17T05:47:55.338Z,3.75
2023-01-17T05:50:35.084Z,3.90
2023-01-17T05:53:11.393Z,3.67
2023-01-17T05:55:38.683Z,3.63
2023-01-17T05:58:07.481Z,3.58
2023-01-17T06:00:34.527Z,3.70
2023-01-17T06:03:01.553Z,3.80
2023-01-17T06:05:29.295Z,2.92
2023-01-17T06:07:56.686Z,4.18
2023-01-17T06:10:24.139Z,3.72
2023-01-17T06:13:00.009Z,4.50
2023-01-17T06:15:26.618Z,5.55
2023-01-17T06:17:53.304Z,3.58
2023-01-17T06:20:20.023Z,3.75
2023-01-17T06:22:46.733Z,4.53
2023-01-17T06:25:13.641Z,3.72
2023-01-17T06:27:41.699Z,4.22
2023-01-17T06:30:09.024Z,3.70
2023-01-17T06:32:35.693Z,3.75
2023-01-17T06:35:02.364Z,4.38
2023-01-17T06:37:28.989Z,3.60
2023-01-17T06:39:55.682Z,3.22
2023-01-17T06:42:22.454Z,3.97
2023-01-17T06:44:49.083Z,4.55
2023-01-17T06:47:15.699Z,4.40
2023-01-17T06:49:43.435Z,3.40
2023-01-17T06:52:10.118Z,4.20
2023-01-17T06:54:36.729Z,4.18
2023-01-17T06:57:03.431Z,3.75
2023-01-17T06:59:30.017Z,4.18
2023-01-17T07:01:56.767Z,3.58
2023-01-17T07:04:23.440Z,3.72
2023-01-17T07:06:50.363Z,4.38
2023-01-17T07:09:18.507Z,4.28
2023-01-17T07:11:47.677Z,4.47
2023-01-17T07:14:14.703Z,4.38
2023-01-17T07:16:45.352Z,4.88
2023-01-17T07:19:12.403Z,5.15
2023-01-17T07:21:41.211Z,4.68
2023-01-17T07:24:09.277Z,5.15
2023-01-17T07:26:37.852Z,5.10
2023-01-17T07:29:05.516Z,5.20
2023-01-17T07:31:38.203Z,5.43
2023-01-17T07:34:05.409Z,6.03
2023-01-17T07:36:33.317Z,5.20
2023-01-17T07:39:00.099Z,5.45
2023-01-17T07:41:34.650Z,5.25
2023-01-17T07:44:04.772Z,7.05
2023-01-17T07:46:31.803Z,6.28
2023-01-17T07:49:00.738Z,7.32
2023-01-17T07:51:27.560Z,6.05
2023-01-17T07:53:54.542Z,5.80
2023-01-17T07:56:21.680Z,5.50
2023-01-17T07:58:48.688Z,5.47
2023-01-17T08:01:16.979Z,5.15
2023-01-17T08:03:45.530Z,4.95
2023-01-17T08:06:26.146Z,5.38
2023-01-17T08:08:56.564Z,5.40
2023-01-17T08:11:23.803Z,5.47
2023-01-17T08:13:57.544Z,4.93
2023-01-17T08:16:25.468Z,5.65
2023-01-17T08:18:53.770Z,6.53
2023-01-17T08:21:20.556Z,5.20
2023-01-17T08:23:48.837Z,5.80
2023-01-17T08:26:22.428Z,5.88
2023-01-17T08:28:57.102Z,6.07
2023-01-17T08:31:24.708Z,5.72
2023-01-17T08:33:51.471Z,5.25
2023-01-17T08:36:18.430Z,6.45
2023-01-17T08:38:45.288Z,5.60
2023-01-17T08:41:13.073Z,5.65
2023-01-17T08:43:39.779Z,7.00
2023-01-17T08:46:06.662Z,6.50
2023-01-17T08:48:33.451Z,5.75
2023-01-17T08:51:02.197Z,5.50
2023-01-17T08:53:29.197Z,5.65
2023-01-17T08:56:01.092Z,8.80
2023-01-17T08:58:30.707Z,6.47
2023-01-17T09:01:04.477Z,6.38
2023-01-17T09:03:32.685Z,9.25
2023-01-17T09:06:13.372Z,7.45
2023-01-17T09:08:40.606Z,6.13
2023-01-17T09:11:10.171Z,6.70
2023-01-17T09:13:37.909Z,7.30
2023-01-17T09:16:05.746Z,6.75
2023-01-17T09:18:35.240Z,6.13
2023-01-17T09:21:16.129Z,6.75
2023-01-17T09:23:43.495Z,7.57
2023-01-17T09:26:25.505Z,6.00
2023-01-17T09:28:52.351Z,7.53
2023-01-17T09:31:23.348Z,6.32
2023-01-17T09:33:51.478Z,6.80
2023-01-17T09:36:18.475Z,7.63
2023-01-17T09:38:45.233Z,7.32
2023-01-17T09:41:23.008Z,6.75
2023-01-17T09:44:00.002Z,5.22
2023-01-17T09:46:32.228Z,6.10
2023-01-17T09:49:29.689Z,6.82
2023-01-17T09:51:56.376Z,8.57
2023-01-17T09:54:26.054Z,7.10
2023-01-17T09:57:19.198Z,7.63
2023-01-17T10:00:04.206Z,7.03
2023-01-17T10:02:49.322Z,5.85
2023-01-17T10:05:27.860Z,6.47
2023-01-17T10:08:14.837Z,6.75
2023-01-17T10:10:55.168Z,6.05
2023-01-17T10:13:27.872Z,5.85
2023-01-17T10:16:00.941Z,5.72
2023-01-17T10:18:46.134Z,6.28
2023-01-17T10:21:25.174Z,5.78
2023-01-17T10:24:18.132Z,5.75
2023-01-17T10:29:20.173Z,6.18
2023-01-17T10:34:33.155Z,6.55
2023-01-17T10:37:17.770Z,5.78
2023-01-17T10:39:47.773Z,6.50
2023-01-17T10:42:24.800Z,6.70
2023-01-17T10:45:07.606Z,7.10
2023-01-17T10:47:37.828Z,6.60
2023-01-17T10:50:11.642Z,5.72
2023-01-17T10:52:53.387Z,6.10
2023-01-17T10:55:53.482Z,6.07
2023-01-17T10:58:20.340Z,6.22
2023-01-17T11:01:00.270Z,5.97
2023-01-17T11:03:28.778Z,5.65
2023-01-17T11:06:24.959Z,6.07
2023-01-17T11:08:57.497Z,4.97
2023-01-17T11:14:05.537Z,5.00
2023-01-17T11:16:32.765Z,5.03
2023-01-17T11:19:17.479Z,5.50
2023-01-17T11:21:54.398Z,5.97
2023-01-17T11:24:30.203Z,5.57
2023-01-17T11:26:58.162Z,5.43
2023-01-17T11:29:28.424Z,5.70
2023-01-17T11:31:58.542Z,4.78
2023-01-17T11:34:29.459Z,5.25
2023-01-17T11:37:19.470Z,5.05
2023-01-17T11:39:49.815Z,4.32
2023-01-17T11:42:38.165Z,4.32
2023-01-17T11:45:26.177Z,4.90
2023-01-17T11:48:17.168Z,4.40
2023-01-17T11:50:53.672Z,4.82
2023-01-17T11:53:43.837Z,6.97
2023-01-17T11:56:18.520Z,5.22
2023-01-17T11:58:47.301Z,5.55
2023-01-17T12:01:41.553Z,3.90
2023-01-17T12:04:23.610Z,6.30
2023-01-17T12:07:12.167Z,5.05
2023-01-17T12:10:06.472Z,5.65
2023-01-17T12:13:06.990Z,4.80
2023-01-17T12:15:52.167Z,4.57
2023-01-17T12:18:31.680Z,5.47
2023-01-17T12:20:58.255Z,5.00
2023-01-17T12:24:02.398Z,4.20
2023-01-17T12:26:45.767Z,4.93
2023-01-17T12:29:42.853Z,3.95
2023-01-17T12:32:50.936Z,4.28
2023-01-17T12:35:23.013Z,4.38
2023-01-17T12:38:04.737Z,4.28
2023-01-17T12:40:34.670Z,4.30
2023-01-17T12:43:35.308Z,3.10
2023-01-17T12:46:07.729Z,3.70
2023-01-17T12:51:18.387Z,4.22
2023-01-17T12:54:07.211Z,4.72
2023-01-17T12:56:39.630Z,9.95
2023-01-17T12:59:24.519Z,3.90
2023-01-17T13:01:58.613Z,3.70
2023-01-17T13:04:57.407Z,3.33
2023-01-17T13:07:53.753Z,3.80
2023-01-17T13:10:41.572Z,4.18
2023-01-17T13:13:28.626Z,4.68
2023-01-17T13:16:00.712Z,3.80
2023-01-17T13:18:29.996Z,4.18
2023-01-17T13:21:14.858Z,3.53
2023-01-17T13:23:53.966Z,3.28
2023-01-17T13:26:40.322Z,3.80
2023-01-17T13:29:44.865Z,3.88
2023-01-17T13:32:30.702Z,2.88
2023-01-17T13:35:22.681Z,3.60
2023-01-17T13:38:12.449Z,4.77
2023-01-17T13:40:51.017Z,3.45
2023-01-17T13:43:30.418Z,4.55
2023-01-17T13:45:59.836Z,3.78
2023-01-17T13:48:30.046Z,2.65
2023-01-17T13:50:59.271Z,2.60
2023-01-17T13:53:28.752Z,2.20
2023-01-17T13:56:18.454Z,2.50
2023-01-17T13:58:51.916Z,2.50
2023-01-17T14:01:24.503Z,2.97
2023-01-17T14:03:53.859Z,2.22
2023-01-17T14:06:38.549Z,4.15
2023-01-17T14:09:08.150Z,2.85
2023-01-17T14:11:37.485Z,2.42
2023-01-17T14:14:41.701Z,3.30
2023-01-17T14:17:25.623Z,1.98
2023-01-17T14:20:16.138Z,2.58
2023-01-17T14:22:52.352Z,3.33
2023-01-17T14:25:28.079Z,2.95
2023-01-17T14:28:01.093Z,3.15
2023-01-17T14:30:34.033Z,2.22
2023-01-17T14:33:04.833Z,2.28
2023-01-17T14:35:57.126Z,2.75
2023-01-17T14:38:27.009Z,2.38
2023-01-17T14:40:59.185Z,2.63
2023-01-17T14:43:28.740Z,2.10
2023-01-17T14:46:04.240Z,2.08
2023-01-17T14:48:31.148Z,1.98
2023-01-17T14:51:00.221Z,1.52
2023-01-17T14:53:31.480Z,0.80
2023-01-17T14:56:11.306Z,1.40
2023-01-17T14:58:39.385Z,1.50
2023-01-17T15:01:20.529Z,1.40
2023-01-17T15:03:53.089Z,2.05
2023-01-17T15:08:54.205Z,1.92
2023-01-17T15:11:30.267Z,2.70
2023-01-17T15:13:59.377Z,2.95
2023-01-17T15:16:28.979Z,2.60
2023-01-17T15:18:58.386Z,2.35
2023-01-17T15:21:28.546Z,1.50
2023-01-17T15:24:07.196Z,1.73
2023-01-17T15:26:35.435Z,2.20
2023-01-17T15:29:08.494Z,2.22
2023-01-17T15:31:44.910Z,1.60
2023-01-17T15:34:26.831Z,2.55
2023-01-17T15:36:56.967Z,1.48
2023-01-17T15:39:41.212Z,2.33
2023-01-17T15:42:23.280Z,2.60
2023-01-17T15:45:01.602Z,4.63
2023-01-17T15:47:28.226Z,3.55
2023-01-17T15:49:55.291Z,3.70
2023-01-17T15:52:22.087Z,3.97
2023-01-17T15:54:53.342Z,3.53
2023-01-17T15:57:29.450Z,2.95
2023-01-17T16:00:18.730Z,2.88
2023-01-17T16:02:55.241Z,3.00
2023-01-17T16:05:22.424Z,2.63
2023-01-17T16:07:58.547Z,3.35
2023-01-17T16:10:35.653Z,3.72
2023-01-17T16:13:07.147Z,2.55
2023-01-17T16:15:35.350Z,3.15
2023-01-17T16:18:03.965Z,3.13
2023-01-17T16:20:42.798Z,3.40
2023-01-17T16:23:10.465Z,2.83
2023-01-17T16:25:38.462Z,2.60
2023-01-17T16:28:06.175Z,2.38
2023-01-17T16:30:33.795Z,2.90
2023-01-17T16:33:00.572Z,3.08
2023-01-17T16:35:30.433Z,3.15
2023-01-17T16:38:06.190Z,2.22
2023-01-17T16:40:38.711Z,3.70
2023-01-17T16:43:05.399Z,2.85
2023-01-17T16:45:40.468Z,3.38
2023-01-17T16:48:07.649Z,3.85
2023-01-17T16:50:34.609Z,3.65
2023-01-17T16:53:01.296Z,3.38
2023-01-17T16:55:27.936Z,3.30
2023-01-17T16:57:58.812Z,4.35
2023-01-17T17:00:26.951Z,5.85
2023-01-17T17:02:54.785Z,6.47
2023-01-17T17:05:23.157Z,5.72
2023-01-17T17:07:51.925Z,3.83
2023-01-17T17:10:21.274Z,4.70
2023-01-17T17:12:48.261Z,6.03
2023-01-17T17:15:15.166Z,8.95
2023-01-17T17:17:43.336Z,6.38
2023-01-17T17:20:14.935Z,5.60
2023-01-17T17:22:44.106Z,5.55
2023-01-17T17:25:15.960Z,5.70
2023-01-17T17:27:43.041Z,5.75
2023-01-17T17:30:10.775Z,7.20
2023-01-17T17:32:37.417Z,7.20
2023-01-17T17:35:04.616Z,6.82
2023-01-17T17:37:31.346Z,6.00
2023-01-17T17:39:58.138Z,6.57
2023-01-17T17:42:24.993Z,8.15
2023-01-17T17:44:51.741Z,6.40
2023-01-17T17:47:18.339Z,6.65
2023-01-17T17:49:44.984Z,5.95
2023-01-17T17:52:11.701Z,7.40
2023-01-17T17:54:38.410Z,6.38
2023-01-17T17:57:05.156Z,8.02
2023-01-17T17:59:32.026Z,9.85
2023-01-17T18:01:59.814Z,6.63
2023-01-17T18:04:27.125Z,6.18
2023-01-17T18:06:59.669Z,6.97
2023-01-17T18:11:52.893Z,9.10
2023-01-17T18:14:21.237Z,10.68
2023-01-17T18:16:48.411Z,8.65
2023-01-17T18:19:23.416Z,8.45
2023-01-17T18:21:51.474Z,9.18
2023-01-17T18:24:20.758Z,8.98
2023-01-17T18:26:53.645Z,10.32
2023-01-17T18:29:21.543Z,9.93
2023-01-17T18:31:52.596Z,6.88
2023-01-17T18:34:24.058Z,7.15
2023-01-17T18:36:51.888Z,7.15
2023-01-17T18:39:27.121Z,6.30
2023-01-17T18:41:54.432Z,8.32
2023-01-17T18:44:22.358Z,7.60
2023-01-17T18:46:50.405Z,7.25
2023-01-17T18:49:19.365Z,6.18
2023-01-17T18:51:50.375Z,5.68
2023-01-17T18:54:18.039Z,6.05
2023-01-17T18:56:44.766Z,8.07
2023-01-17T18:59:13.099Z,7.65
2023-01-17T19:01:42.344Z,7.25
2023-01-17T19:04:09.577Z,8.38
2023-01-17T19:06:38.684Z,6.30
2023-01-17T19:09:07.535Z,5.75
2023-01-17T19:11:36.764Z,7.53
2023-01-17T19:14:05.728Z,7.63
2023-01-17T19:16:39.235Z,9.77
2023-01-17T19:19:08.612Z,6.30
2023-01-17T19:21:35.854Z,6.80
2023-01-17T19:24:03.172Z,6.07
2023-01-17T19:26:30.095Z,7.43
2023-01-17T19:29:03.736Z,6.90
2023-01-17T19:31:32.351Z,8.57
2023-01-17T19:33:59.849Z,10.10
2023-01-17T19:36:31.508Z,7.30
2023-01-17T19:39:05.012Z,7.97
2023-01-17T19:41:34.806Z,7.10
2023-01-17T19:44:06.707Z,7.53
2023-01-17T19:46:34.652Z,7.47
2023-01-17T19:49:01.649Z,10.13
2023-01-17T19:51:28.745Z,8.70
2023-01-17T19:53:56.564Z,9.30
2023-01-17T19:56:25.829Z,8.65
2023-01-17T19:58:53.335Z,9.55
2023-01-17T20:01:24.539Z,8.35
2023-01-17T20:03:52.223Z,9.40
2023-01-17T20:06:25.335Z,7.55
2023-01-17T20:08:52.001Z,7.32
2023-01-17T20:11:20.966Z,7.03
2023-01-17T20:13:53.382Z,6.75
2023-01-17T20:16:21.479Z,6.57
2023-01-17T20:18:48.349Z,5.00
2023-01-17T20:21:17.441Z,9.35
2023-01-17T20:23:47.544Z,13.40
2023-01-17T20:26:16.039Z,8.82
2023-01-17T20:28:45.427Z,20.13
2023-01-17T20:31:17.337Z,5.65
2023-01-17T20:33:45.536Z,9.60
2023-01-17T20:36:14.943Z,5.90
2023-01-17T20:38:45.347Z,8.25
2023-01-17T20:41:17.085Z,7.75
2023-01-17T20:43:46.724Z,11.70
2023-01-17T20:46:14.437Z,10.23
2023-01-17T20:48:49.731Z,10.10
2023-01-17T20:51:17.254Z,16.00
2023-01-17T20:53:46.122Z,15.73
2023-01-17T20:56:15.367Z,17.00
2023-01-17T20:58:42.711Z,22.83
2023-01-17T21:01:11.549Z,14.68
2023-01-17T21:03:39.666Z,12.15
2023-01-17T21:06:11.535Z,7.78
2023-01-17T21:08:39.602Z,8.77
2023-01-17T21:11:07.670Z,10.02
2023-01-17T21:13:34.832Z,15.43
2023-01-17T21:16:02.536Z,5.95
2023-01-17T21:18:32.657Z,7.43
2023-01-17T21:21:08.136Z,6.45
2023-01-17T21:23:35.962Z,5.30
2023-01-17T21:26:03.561Z,4.93
2023-01-17T21:28:33.433Z,4.90
2023-01-17T21:31:00.228Z,5.03
2023-01-17T21:33:29.398Z,4.97
2023-01-17T21:36:07.803Z,5.10
2023-01-17T21:38:34.461Z,4.93
2023-01-17T21:41:01.129Z,4.82
2023-01-17T21:43:28.014Z,5.03
2023-01-17T21:45:54.836Z,4.70
2023-01-17T21:48:21.533Z,3.58
2023-01-17T21:50:52.237Z,3.67
2023-01-17T21:53:18.940Z,4.90
2023-01-17T21:56:04.115Z,4.45
2023-01-17T21:58:46.067Z,5.75
2023-01-17T22:01:21.908Z,7.57
2023-01-17T22:03:57.123Z,6.57
2023-01-17T22:06:27.676Z,5.85
2023-01-17T22:08:54.876Z,4.75
2023-01-17T22:11:26.188Z,5.07
2023-01-17T22:13:53.383Z,5.07
2023-01-17T22:16:23.425Z,4.15
2023-01-17T22:18:52.091Z,5.05
2023-01-17T22:21:24.777Z,4.03
2023-01-17T22:23:57.154Z,3.10
2023-01-17T22:28:52.386Z,4.00
2023-01-17T22:31:25.221Z,3.20
2023-01-17T22:33:54.774Z,2.80
2023-01-17T22:36:21.993Z,3.17
2023-01-17T22:38:49.091Z,3.40
2023-01-17T22:41:29.879Z,2.85
2023-01-17T22:43:58.830Z,4.97
2023-01-17T22:46:28.140Z,3.53
2023-01-17T22:48:56.238Z,3.72
2023-01-17T22:51:24.352Z,4.57
2023-01-17T22:53:53.152Z,3.55
2023-01-17T22:56:22.600Z,6.00
2023-01-17T22:58:50.184Z,5.15
2023-01-17T23:01:25.275Z,4.80
2023-01-17T23:03:54.333Z,5.88
2023-01-17T23:06:25.554Z,4.10
2023-01-17T23:08:54.642Z,5.03
2023-01-17T23:11:39.194Z,3.97
2023-01-17T23:14:07.833Z,4.07
2023-01-17T23:16:53.009Z,6.50
2023-01-17T23:19:22.752Z,4.55
2023-01-17T23:22:09.796Z,5.88
2023-01-17T23:24:39.559Z,5.30
2023-01-17T23:27:24.840Z,5.60
2023-01-17T23:29:51.497Z,4.47
2023-01-17T23:32:18.128Z,3.50
2023-01-17T23:34:44.854Z,4.50
2023-01-17T23:37:11.501Z,4.53
2023-01-17T23:39:38.113Z,3.80
2023-01-17T23:42:28.054Z,5.30
2023-01-17T23:44:54.674Z,3.30
2023-01-17T23:47:21.308Z,3.05
2023-01-17T23:49:50.952Z,2.20
2023-01-17T23:52:17.603Z,2.15
2023-01-17T23:54:44.221Z,2.20
2023-01-17T23:57:10.911Z,2.50
2023-01-17T23:59:37.610Z,2.35
